sensor_id;sensor_type;location;lat;lon;timestamp;P1;durP1;ratioP1;P2;durP2;ratioP2
74044;SDS011;62389;51.412;5.436;2024-03-17T00:02:01;10.13;;;3.67;;
74044;SDS011;62389;51.412;5.436;2024-03-17T00:04:27;7.47;;;3.70;;
74044;SDS011;62389;51.412;5.436;2024-03-17T00:06:52;7.25;;;3.20;;
74044;SDS011;62389;51.412;5.436;2024-03-17T00:09:18;7.32;;;3.28;;
74044;SDS011;62389;51.412;5.436;2024-03-17T00:11:44;7.50;;;3.75;;
74044;SDS011;62389;51.412;5.436;2024-03-17T00:14:10;6.03;;;3.50;;
74044;SDS011;62389;51.412;5.436;2024-03-17T00:16:36;8.35;;;4.50;;
74044;SDS011;62389;51.412;5.436;2024-03-17T00:19:02;5.95;;;3.42;;
74044;SDS011;62389;51.412;5.436;2024-03-17T00:21:27;7.78;;;4.15;;
74044;SDS011;62389;51.412;5.436;2024-03-17T00:23:52;8.77;;;3.95;;
74044;SDS011;62389;51.412;5.436;2024-03-17T00:26:18;8.38;;;3.83;;
74044;SDS011;62389;51.412;5.436;2024-03-17T00:28:46;6.88;;;4.47;;
74044;SDS011;62389;51.412;5.436;2024-03-17T00:31:13;7.43;;;3.83;;
74044;SDS011;62389;51.412;5.436;2024-03-17T00:33:40;8.48;;;4.15;;
74044;SDS011;62389;51.412;5.436;2024-03-17T00:36:06;6.40;;;3.85;;
74044;SDS011;62389;51.412;5.436;2024-03-17T00:38:31;8.25;;;4.20;;
74044;SDS011;62389;51.412;5.436;2024-03-17T00:40:57;7.60;;;4.30;;
74044;SDS011;62389;51.412;5.436;2024-03-17T00:43:22;6.93;;;4.13;;
74044;SDS011;62389;51.412;5.436;2024-03-17T00:45:51;7.50;;;4.25;;
74044;SDS011;62389;51.412;5.436;2024-03-17T00:48:17;6.18;;;3.80;;
74044;SDS011;62389;51.412;5.436;2024-03-17T00:50:42;7.45;;;4.40;;
74044;SDS011;62389;51.412;5.436;2024-03-17T00:53:09;6.28;;;3.63;;
74044;SDS011;62389;51.412;5.436;2024-03-17T00:55:35;8.00;;;4.35;;
74044;SDS011;62389;51.412;5.436;2024-03-17T00:58:00;8.75;;;4.88;;
74044;SDS011;62389;51.412;5.436;2024-03-17T01:00:26;11.73;;;5.22;;
74044;SDS011;62389;51.412;5.436;2024-03-17T01:02:51;8.88;;;4.32;;
74044;SDS011;62389;51.412;5.436;2024-03-17T01:05:17;6.78;;;3.95;;
74044;SDS011;62389;51.412;5.436;2024-03-17T01:07:42;6.97;;;4.00;;
74044;SDS011;62389;51.412;5.436;2024-03-17T01:10:08;7.15;;;4.55;;
74044;SDS011;62389;51.412;5.436;2024-03-17T01:12:34;9.32;;;4.68;;
74044;SDS011;62389;51.412;5.436;2024-03-17T01:15:00;8.45;;;4.25;;
74044;SDS011;62389;51.412;5.436;2024-03-17T01:17:27;7.20;;;4.50;;
74044;SDS011;62389;51.412;5.436;2024-03-17T01:19:54;14.05;;;5.13;;
74044;SDS011;62389;51.412;5.436;2024-03-17T01:22:19;7.65;;;4.40;;
74044;SDS011;62389;51.412;5.436;2024-03-17T01:24:45;10.68;;;5.72;;
74044;SDS011;62389;51.412;5.436;2024-03-17T01:27:11;15.38;;;6.05;;
74044;SDS011;62389;51.412;5.436;2024-03-17T01:29:39;9.93;;;5.15;;
74044;SDS011;62389;51.412;5.436;2024-03-17T01:32:05;9.55;;;5.45;;
74044;SDS011;62389;51.412;5.436;2024-03-17T01:34:31;7.53;;;4.70;;
74044;SDS011;62389;51.412;5.436;2024-03-17T01:36:56;7.40;;;4.68;;
74044;SDS011;62389;51.412;5.436;2024-03-17T01:39:21;6.97;;;4.13;;
74044;SDS011;62389;51.412;5.436;2024-03-17T01:41:47;7.57;;;4.68;;
74044;SDS011;62389;51.412;5.436;2024-03-17T01:44:25;7.15;;;4.30;;
74044;SDS011;62389;51.412;5.436;2024-03-17T01:46:52;9.50;;;4.78;;
74044;SDS011;62389;51.412;5.436;2024-03-17T01:49:20;10.05;;;4.55;;
74044;SDS011;62389;51.412;5.436;2024-03-17T01:51:46;12.10;;;6.05;;
74044;SDS011;62389;51.412;5.436;2024-03-17T01:54:12;12.00;;;5.75;;
74044;SDS011;62389;51.412;5.436;2024-03-17T01:56:39;12.07;;;6.35;;
74044;SDS011;62389;51.412;5.436;2024-03-17T01:59:05;12.30;;;6.25;;
74044;SDS011;62389;51.412;5.436;2024-03-17T02:01:31;10.00;;;5.90;;
74044;SDS011;62389;51.412;5.436;2024-03-17T02:03:56;12.98;;;6.60;;
74044;SDS011;62389;51.412;5.436;2024-03-17T02:06:23;12.43;;;6.03;;
74044;SDS011;62389;51.412;5.436;2024-03-17T02:08:49;13.75;;;6.43;;
74044;SDS011;62389;51.412;5.436;2024-03-17T02:11:25;10.55;;;6.13;;
74044;SDS011;62389;51.412;5.436;2024-03-17T02:13:55;10.70;;;5.88;;
74044;SDS011;62389;51.412;5.436;2024-03-17T02:16:21;11.05;;;6.75;;
74044;SDS011;62389;51.412;5.436;2024-03-17T02:18:47;16.77;;;6.55;;
74044;SDS011;62389;51.412;5.436;2024-03-17T02:21:13;14.25;;;7.03;;
74044;SDS011;62389;51.412;5.436;2024-03-17T02:23:39;11.68;;;6.93;;
74044;SDS011;62389;51.412;5.436;2024-03-17T02:26:05;14.30;;;7.53;;
74044;SDS011;62389;51.412;5.436;2024-03-17T02:28:37;12.43;;;6.80;;
74044;SDS011;62389;51.412;5.436;2024-03-17T02:33:30;12.00;;;7.13;;
74044;SDS011;62389;51.412;5.436;2024-03-17T02:35:55;13.55;;;7.50;;
74044;SDS011;62389;51.412;5.436;2024-03-17T02:38:20;12.80;;;7.70;;
74044;SDS011;62389;51.412;5.436;2024-03-17T02:41:06;15.05;;;8.27;;
74044;SDS011;62389;51.412;5.436;2024-03-17T02:43:31;14.32;;;7.70;;
74044;SDS011;62389;51.412;5.436;2024-03-17T02:45:56;13.52;;;7.50;;
74044;SDS011;62389;51.412;5.436;2024-03-17T02:48:22;15.77;;;7.60;;
74044;SDS011;62389;51.412;5.436;2024-03-17T02:50:48;16.08;;;7.57;;
74044;SDS011;62389;51.412;5.436;2024-03-17T02:53:13;13.02;;;7.03;;
74044;SDS011;62389;51.412;5.436;2024-03-17T02:55:39;13.77;;;7.20;;
74044;SDS011;62389;51.412;5.436;2024-03-17T02:58:04;12.95;;;7.05;;
74044;SDS011;62389;51.412;5.436;2024-03-17T03:00:29;13.57;;;7.43;;
74044;SDS011;62389;51.412;5.436;2024-03-17T03:02:55;12.13;;;6.88;;
74044;SDS011;62389;51.412;5.436;2024-03-17T03:05:20;11.88;;;6.85;;
74044;SDS011;62389;51.412;5.436;2024-03-17T03:07:45;10.85;;;6.35;;
74044;SDS011;62389;51.412;5.436;2024-03-17T03:10:11;11.88;;;6.55;;
74044;SDS011;62389;51.412;5.436;2024-03-17T03:12:36;11.55;;;7.38;;
74044;SDS011;62389;51.412;5.436;2024-03-17T03:15:01;13.32;;;6.60;;
74044;SDS011;62389;51.412;5.436;2024-03-17T03:17:28;15.25;;;6.68;;
74044;SDS011;62389;51.412;5.436;2024-03-17T03:19:53;17.38;;;7.63;;
74044;SDS011;62389;51.412;5.436;2024-03-17T03:22:20;12.98;;;7.20;;
74044;SDS011;62389;51.412;5.436;2024-03-17T03:24:46;10.50;;;6.78;;
74044;SDS011;62389;51.412;5.436;2024-03-17T03:27:12;12.05;;;6.75;;
74044;SDS011;62389;51.412;5.436;2024-03-17T03:29:38;11.63;;;5.97;;
74044;SDS011;62389;51.412;5.436;2024-03-17T03:32:03;10.52;;;6.65;;
74044;SDS011;62389;51.412;5.436;2024-03-17T03:34:29;13.18;;;7.25;;
74044;SDS011;62389;51.412;5.436;2024-03-17T03:36:54;12.50;;;6.60;;
74044;SDS011;62389;51.412;5.436;2024-03-17T03:39:21;16.08;;;7.35;;
74044;SDS011;62389;51.412;5.436;2024-03-17T03:41:46;10.80;;;6.18;;
74044;SDS011;62389;51.412;5.436;2024-03-17T03:44:12;12.60;;;6.60;;
74044;SDS011;62389;51.412;5.436;2024-03-17T03:46:38;12.75;;;6.72;;
74044;SDS011;62389;51.412;5.436;2024-03-17T03:49:03;14.52;;;7.45;;
74044;SDS011;62389;51.412;5.436;2024-03-17T03:51:29;13.73;;;6.57;;
74044;SDS011;62389;51.412;5.436;2024-03-17T03:53:54;11.57;;;6.47;;
74044;SDS011;62389;51.412;5.436;2024-03-17T03:56:20;13.57;;;6.63;;
74044;SDS011;62389;51.412;5.436;2024-03-17T03:58:45;11.30;;;6.50;;
74044;SDS011;62389;51.412;5.436;2024-03-17T04:01:11;12.60;;;6.45;;
74044;SDS011;62389;51.412;5.436;2024-03-17T04:03:37;12.68;;;6.72;;
74044;SDS011;62389;51.412;5.436;2024-03-17T04:08:29;12.30;;;6.70;;
74044;SDS011;62389;51.412;5.436;2024-03-17T04:10:54;10.65;;;6.60;;
74044;SDS011;62389;51.412;5.436;2024-03-17T04:13:20;10.63;;;5.90;;
74044;SDS011;62389;51.412;5.436;2024-03-17T04:15:45;11.20;;;6.18;;
74044;SDS011;62389;51.412;5.436;2024-03-17T04:18:10;12.50;;;6.82;;
74044;SDS011;62389;51.412;5.436;2024-03-17T04:20:36;12.55;;;6.32;;
74044;SDS011;62389;51.412;5.436;2024-03-17T04:23:01;14.13;;;6.78;;
74044;SDS011;62389;51.412;5.436;2024-03-17T04:25:28;10.13;;;6.20;;
74044;SDS011;62389;51.412;5.436;2024-03-17T04:27:53;11.48;;;6.53;;
74044;SDS011;62389;51.412;5.436;2024-03-17T04:30:19;10.90;;;6.75;;
74044;SDS011;62389;51.412;5.436;2024-03-17T04:32:44;12.68;;;7.20;;
74044;SDS011;62389;51.412;5.436;2024-03-17T04:35:10;12.80;;;6.90;;
74044;SDS011;62389;51.412;5.436;2024-03-17T04:37:35;13.00;;;6.97;;
74044;SDS011;62389;51.412;5.436;2024-03-17T04:40:04;11.75;;;6.75;;
74044;SDS011;62389;51.412;5.436;2024-03-17T04:42:34;11.25;;;6.35;;
74044;SDS011;62389;51.412;5.436;2024-03-17T04:44:59;11.85;;;7.05;;
74044;SDS011;62389;51.412;5.436;2024-03-17T04:47:25;13.27;;;6.95;;
74044;SDS011;62389;51.412;5.436;2024-03-17T04:49:51;12.18;;;6.57;;
74044;SDS011;62389;51.412;5.436;2024-03-17T04:52:16;13.50;;;8.05;;
74044;SDS011;62389;51.412;5.436;2024-03-17T04:54:42;13.25;;;7.25;;
74044;SDS011;62389;51.412;5.436;2024-03-17T04:57:08;12.20;;;6.85;;
74044;SDS011;62389;51.412;5.436;2024-03-17T04:59:34;12.13;;;6.55;;
74044;SDS011;62389;51.412;5.436;2024-03-17T05:02:00;11.05;;;6.80;;
74044;SDS011;62389;51.412;5.436;2024-03-17T05:04:25;11.70;;;6.22;;
74044;SDS011;62389;51.412;5.436;2024-03-17T05:06:51;12.57;;;7.22;;
74044;SDS011;62389;51.412;5.436;2024-03-17T05:09:16;12.32;;;7.45;;
74044;SDS011;62389;51.412;5.436;2024-03-17T05:11:42;10.68;;;6.32;;
74044;SDS011;62389;51.412;5.436;2024-03-17T05:14:08;9.80;;;5.80;;
74044;SDS011;62389;51.412;5.436;2024-03-17T05:16:34;13.23;;;7.05;;
74044;SDS011;62389;51.412;5.436;2024-03-17T05:18:59;9.75;;;6.03;;
74044;SDS011;62389;51.412;5.436;2024-03-17T05:21:25;10.88;;;6.50;;
74044;SDS011;62389;51.412;5.436;2024-03-17T05:23:51;9.80;;;5.72;;
74044;SDS011;62389;51.412;5.436;2024-03-17T05:26:17;10.70;;;6.30;;
74044;SDS011;62389;51.412;5.436;2024-03-17T05:28:42;12.35;;;7.03;;
74044;SDS011;62389;51.412;5.436;2024-03-17T05:31:09;11.13;;;6.47;;
74044;SDS011;62389;51.412;5.436;2024-03-17T05:33:34;12.80;;;6.35;;
74044;SDS011;62389;51.412;5.436;2024-03-17T05:36:00;13.27;;;6.65;;
74044;SDS011;62389;51.412;5.436;2024-03-17T05:38:28;10.93;;;6.60;;
74044;SDS011;62389;51.412;5.436;2024-03-17T05:43:30;8.63;;;5.40;;
74044;SDS011;62389;51.412;5.436;2024-03-17T05:45:58;11.27;;;6.40;;
74044;SDS011;62389;51.412;5.436;2024-03-17T05:48:25;11.07;;;6.53;;
74044;SDS011;62389;51.412;5.436;2024-03-17T05:50:51;11.93;;;6.22;;
74044;SDS011;62389;51.412;5.436;2024-03-17T05:53:17;11.75;;;6.47;;
74044;SDS011;62389;51.412;5.436;2024-03-17T05:55:46;9.55;;;5.55;;
74044;SDS011;62389;51.412;5.436;2024-03-17T05:58:11;14.20;;;5.68;;
74044;SDS011;62389;51.412;5.436;2024-03-17T06:00:37;10.93;;;6.65;;
74044;SDS011;62389;51.412;5.436;2024-03-17T06:03:04;10.55;;;6.00;;
74044;SDS011;62389;51.412;5.436;2024-03-17T06:05:33;9.35;;;6.47;;
74044;SDS011;62389;51.412;5.436;2024-03-17T06:08:02;11.63;;;6.35;;
74044;SDS011;62389;51.412;5.436;2024-03-17T06:10:29;10.65;;;5.97;;
74044;SDS011;62389;51.412;5.436;2024-03-17T06:12:56;10.30;;;6.20;;
74044;SDS011;62389;51.412;5.436;2024-03-17T06:15:22;9.68;;;5.53;;
74044;SDS011;62389;51.412;5.436;2024-03-17T06:17:48;9.50;;;4.88;;
74044;SDS011;62389;51.412;5.436;2024-03-17T06:20:15;11.88;;;6.13;;
74044;SDS011;62389;51.412;5.436;2024-03-17T06:22:41;9.90;;;5.63;;
74044;SDS011;62389;51.412;5.436;2024-03-17T06:25:06;10.25;;;5.53;;
74044;SDS011;62389;51.412;5.436;2024-03-17T06:27:32;13.90;;;5.80;;
74044;SDS011;62389;51.412;5.436;2024-03-17T06:30:00;9.30;;;5.55;;
74044;SDS011;62389;51.412;5.436;2024-03-17T06:32:35;9.07;;;5.20;;
74044;SDS011;62389;51.412;5.436;2024-03-17T06:35:03;9.73;;;5.63;;
74044;SDS011;62389;51.412;5.436;2024-03-17T06:37:29;9.13;;;5.20;;
74044;SDS011;62389;51.412;5.436;2024-03-17T06:39:54;10.43;;;5.72;;
74044;SDS011;62389;51.412;5.436;2024-03-17T06:42:20;8.88;;;5.28;;
74044;SDS011;62389;51.412;5.436;2024-03-17T06:44:45;11.45;;;5.78;;
74044;SDS011;62389;51.412;5.436;2024-03-17T06:47:11;9.13;;;5.20;;
74044;SDS011;62389;51.412;5.436;2024-03-17T06:49:36;7.90;;;5.10;;
74044;SDS011;62389;51.412;5.436;2024-03-17T06:52:02;8.13;;;5.05;;
74044;SDS011;62389;51.412;5.436;2024-03-17T06:54:27;9.18;;;5.45;;
74044;SDS011;62389;51.412;5.436;2024-03-17T06:56:53;7.85;;;4.90;;
74044;SDS011;62389;51.412;5.436;2024-03-17T06:59:18;10.18;;;5.45;;
74044;SDS011;62389;51.412;5.436;2024-03-17T07:04:11;10.30;;;5.05;;
74044;SDS011;62389;51.412;5.436;2024-03-17T07:06:37;11.70;;;4.85;;
74044;SDS011;62389;51.412;5.436;2024-03-17T07:09:02;10.75;;;5.07;;
74044;SDS011;62389;51.412;5.436;2024-03-17T07:11:28;9.35;;;5.18;;
74044;SDS011;62389;51.412;5.436;2024-03-17T07:13:53;9.18;;;5.55;;
74044;SDS011;62389;51.412;5.436;2024-03-17T07:16:19;9.98;;;5.43;;
74044;SDS011;62389;51.412;5.436;2024-03-17T07:18:46;8.93;;;5.10;;
74044;SDS011;62389;51.412;5.436;2024-03-17T07:21:12;6.35;;;4.18;;
74044;SDS011;62389;51.412;5.436;2024-03-17T07:23:38;7.53;;;4.85;;
74044;SDS011;62389;51.412;5.436;2024-03-17T07:26:03;6.50;;;4.55;;
74044;SDS011;62389;51.412;5.436;2024-03-17T07:28:30;10.02;;;5.13;;
74044;SDS011;62389;51.412;5.436;2024-03-17T07:30:56;9.40;;;4.93;;
74044;SDS011;62389;51.412;5.436;2024-03-17T07:33:23;8.10;;;4.80;;
74044;SDS011;62389;51.412;5.436;2024-03-17T07:35:50;9.32;;;5.05;;
74044;SDS011;62389;51.412;5.436;2024-03-17T07:38:20;7.43;;;4.68;;
74044;SDS011;62389;51.412;5.436;2024-03-17T07:40:55;9.18;;;4.75;;
74044;SDS011;62389;51.412;5.436;2024-03-17T07:43:24;7.70;;;4.50;;
74044;SDS011;62389;51.412;5.436;2024-03-17T07:45:58;8.73;;;4.95;;
74044;SDS011;62389;51.412;5.436;2024-03-17T07:48:32;7.28;;;4.25;;
74044;SDS011;62389;51.412;5.436;2024-03-17T07:51:02;6.72;;;4.28;;
74044;SDS011;62389;51.412;5.436;2024-03-17T07:53:30;10.95;;;4.32;;
74044;SDS011;62389;51.412;5.436;2024-03-17T07:56:02;8.98;;;4.88;;
74044;SDS011;62389;51.412;5.436;2024-03-17T07:58:29;6.70;;;4.45;;
74044;SDS011;62389;51.412;5.436;2024-03-17T08:00:58;6.50;;;3.95;;
74044;SDS011;62389;51.412;5.436;2024-03-17T08:03:28;6.60;;;4.50;;
74044;SDS011;62389;51.412;5.436;2024-03-17T08:05:54;9.10;;;4.32;;
74044;SDS011;62389;51.412;5.436;2024-03-17T08:08:20;5.88;;;3.72;;
74044;SDS011;62389;51.412;5.436;2024-03-17T08:10:46;9.05;;;4.40;;
74044;SDS011;62389;51.412;5.436;2024-03-17T08:13:16;7.05;;;3.90;;
74044;SDS011;62389;51.412;5.436;2024-03-17T08:15:45;17.00;;;4.72;;
74044;SDS011;62389;51.412;5.436;2024-03-17T08:18:12;8.20;;;4.38;;
74044;SDS011;62389;51.412;5.436;2024-03-17T08:20:38;7.25;;;4.10;;
74044;SDS011;62389;51.412;5.436;2024-03-17T08:23:04;7.13;;;4.10;;
74044;SDS011;62389;51.412;5.436;2024-03-17T08:25:31;6.88;;;3.97;;
74044;SDS011;62389;51.412;5.436;2024-03-17T08:27:56;9.32;;;4.45;;
74044;SDS011;62389;51.412;5.436;2024-03-17T08:30:22;7.13;;;4.15;;
74044;SDS011;62389;51.412;5.436;2024-03-17T08:32:47;7.35;;;4.10;;
74044;SDS011;62389;51.412;5.436;2024-03-17T08:35:12;6.20;;;3.83;;
74044;SDS011;62389;51.412;5.436;2024-03-17T08:37:38;7.03;;;3.63;;
74044;SDS011;62389;51.412;5.436;2024-03-17T08:40:03;6.88;;;3.88;;
74044;SDS011;62389;51.412;5.436;2024-03-17T08:42:31;6.10;;;4.15;;
74044;SDS011;62389;51.412;5.436;2024-03-17T08:44:57;8.52;;;4.38;;
74044;SDS011;62389;51.412;5.436;2024-03-17T08:47:22;8.23;;;4.60;;
74044;SDS011;62389;51.412;5.436;2024-03-17T08:49:50;7.82;;;4.45;;
74044;SDS011;62389;51.412;5.436;2024-03-17T08:52:16;6.20;;;3.85;;
74044;SDS011;62389;51.412;5.436;2024-03-17T08:54:42;10.63;;;4.38;;
74044;SDS011;62389;51.412;5.436;2024-03-17T08:57:11;8.13;;;4.28;;
74044;SDS011;62389;51.412;5.436;2024-03-17T08:59:36;8.68;;;4.45;;
74044;SDS011;62389;51.412;5.436;2024-03-17T09:02:02;10.95;;;4.45;;
74044;SDS011;62389;51.412;5.436;2024-03-17T09:04:28;9.00;;;4.53;;
74044;SDS011;62389;51.412;5.436;2024-03-17T09:06:54;8.07;;;4.13;;
74044;SDS011;62389;51.412;5.436;2024-03-17T09:09:21;6.95;;;4.63;;
74044;SDS011;62389;51.412;5.436;2024-03-17T09:11:47;6.85;;;3.78;;
74044;SDS011;62389;51.412;5.436;2024-03-17T09:14:12;8.60;;;4.22;;
74044;SDS011;62389;51.412;5.436;2024-03-17T09:16:37;6.25;;;4.10;;
74044;SDS011;62389;51.412;5.436;2024-03-17T09:19:03;7.07;;;3.90;;
74044;SDS011;62389;51.412;5.436;2024-03-17T09:21:28;7.53;;;3.80;;
74044;SDS011;62389;51.412;5.436;2024-03-17T09:23:53;6.25;;;4.20;;
74044;SDS011;62389;51.412;5.436;2024-03-17T09:26:19;7.43;;;4.15;;
74044;SDS011;62389;51.412;5.436;2024-03-17T09:28:44;9.23;;;4.20;;
74044;SDS011;62389;51.412;5.436;2024-03-17T09:31:10;6.47;;;4.38;;
74044;SDS011;62389;51.412;5.436;2024-03-17T09:33:36;7.28;;;3.92;;
74044;SDS011;62389;51.412;5.436;2024-03-17T09:36:03;6.82;;;3.92;;
74044;SDS011;62389;51.412;5.436;2024-03-17T09:38:34;9.45;;;4.30;;
74044;SDS011;62389;51.412;5.436;2024-03-17T09:41:00;7.28;;;3.97;;
74044;SDS011;62389;51.412;5.436;2024-03-17T09:43:29;6.55;;;4.15;;
74044;SDS011;62389;51.412;5.436;2024-03-17T09:45:58;8.10;;;4.32;;
74044;SDS011;62389;51.412;5.436;2024-03-17T09:48:24;7.85;;;4.22;;
74044;SDS011;62389;51.412;5.436;2024-03-17T09:50:51;7.15;;;3.92;;
74044;SDS011;62389;51.412;5.436;2024-03-17T09:53:22;7.55;;;3.53;;
74044;SDS011;62389;51.412;5.436;2024-03-17T09:55:49;6.55;;;3.83;;
74044;SDS011;62389;51.412;5.436;2024-03-17T09:58:15;7.03;;;3.53;;
74044;SDS011;62389;51.412;5.436;2024-03-17T10:00:44;5.90;;;3.42;;
74044;SDS011;62389;51.412;5.436;2024-03-17T10:03:10;6.15;;;3.40;;
74044;SDS011;62389;51.412;5.436;2024-03-17T10:05:35;10.05;;;3.90;;
74044;SDS011;62389;51.412;5.436;2024-03-17T10:08:01;7.38;;;3.83;;
74044;SDS011;62389;51.412;5.436;2024-03-17T10:10:27;7.03;;;3.47;;
74044;SDS011;62389;51.412;5.436;2024-03-17T10:12:52;7.13;;;3.25;;
74044;SDS011;62389;51.412;5.436;2024-03-17T10:15:18;6.13;;;3.42;;
74044;SDS011;62389;51.412;5.436;2024-03-17T10:17:45;7.70;;;3.30;;
74044;SDS011;62389;51.412;5.436;2024-03-17T10:22:37;5.35;;;3.17;;
74044;SDS011;62389;51.412;5.436;2024-03-17T10:25:03;7.70;;;3.60;;
74044;SDS011;62389;51.412;5.436;2024-03-17T10:27:28;5.85;;;3.63;;
74044;SDS011;62389;51.412;5.436;2024-03-17T10:29:54;6.30;;;3.55;;
74044;SDS011;62389;51.412;5.436;2024-03-17T10:32:20;6.15;;;3.20;;
74044;SDS011;62389;51.412;5.436;2024-03-17T10:34:49;5.80;;;3.40;;
74044;SDS011;62389;51.412;5.436;2024-03-17T10:39:52;7.10;;;3.83;;
74044;SDS011;62389;51.412;5.436;2024-03-17T10:42:27;5.85;;;3.28;;
74044;SDS011;62389;51.412;5.436;2024-03-17T10:44:53;8.40;;;3.50;;
74044;SDS011;62389;51.412;5.436;2024-03-17T10:49:47;7.85;;;3.25;;
74044;SDS011;62389;51.412;5.436;2024-03-17T10:52:16;5.10;;;3.58;;
74044;SDS011;62389;51.412;5.436;2024-03-17T10:54:52;7.35;;;3.42;;
74044;SDS011;62389;51.412;5.436;2024-03-17T10:59:59;8.05;;;3.83;;
74044;SDS011;62389;51.412;5.436;2024-03-17T11:02:28;5.53;;;3.22;;
74044;SDS011;62389;51.412;5.436;2024-03-17T11:04:59;6.28;;;3.15;;
74044;SDS011;62389;51.412;5.436;2024-03-17T11:07:25;4.90;;;3.00;;
74044;SDS011;62389;51.412;5.436;2024-03-17T11:09:52;7.78;;;3.28;;
74044;SDS011;62389;51.412;5.436;2024-03-17T11:15:42;5.50;;;2.63;;
74044;SDS011;62389;51.412;5.436;2024-03-17T11:20:33;6.18;;;3.17;;
74044;SDS011;62389;51.412;5.436;2024-03-17T11:22:59;6.57;;;3.03;;
74044;SDS011;62389;51.412;5.436;2024-03-17T11:27:54;10.20;;;3.28;;
74044;SDS011;62389;51.412;5.436;2024-03-17T11:51:55;5.85;;;2.78;;
74044;SDS011;62389;51.412;5.436;2024-03-17T11:54:26;6.50;;;2.90;;
74044;SDS011;62389;51.412;5.436;2024-03-17T11:57:00;6.10;;;3.20;;
74044;SDS011;62389;51.412;5.436;2024-03-17T11:59:27;7.53;;;2.95;;
74044;SDS011;62389;51.412;5.436;2024-03-17T12:01:54;6.18;;;2.88;;
74044;SDS011;62389;51.412;5.436;2024-03-17T12:04:20;4.82;;;2.40;;
74044;SDS011;62389;51.412;5.436;2024-03-17T12:11:51;5.57;;;3.00;;
74044;SDS011;62389;51.412;5.436;2024-03-17T12:14:23;5.68;;;2.65;;
74044;SDS011;62389;51.412;5.436;2024-03-17T12:16:54;5.78;;;2.60;;
74044;SDS011;62389;51.412;5.436;2024-03-17T12:19:21;6.38;;;3.60;;
74044;SDS011;62389;51.412;5.436;2024-03-17T12:21:57;8.25;;;3.35;;
74044;SDS011;62389;51.412;5.436;2024-03-17T12:24:30;5.70;;;3.13;;
74044;SDS011;62389;51.412;5.436;2024-03-17T12:26:57;9.02;;;3.13;;
74044;SDS011;62389;51.412;5.436;2024-03-17T12:32:15;8.93;;;3.47;;
74044;SDS011;62389;51.412;5.436;2024-03-17T12:34:42;8.23;;;3.42;;
74044;SDS011;62389;51.412;5.436;2024-03-17T12:37:11;8.13;;;3.15;;
74044;SDS011;62389;51.412;5.436;2024-03-17T12:39:41;4.97;;;2.92;;
74044;SDS011;62389;51.412;5.436;2024-03-17T12:42:11;4.18;;;2.80;;
74044;SDS011;62389;51.412;5.436;2024-03-17T12:44:52;8.05;;;3.40;;
74044;SDS011;62389;51.412;5.436;2024-03-17T12:47:24;4.75;;;2.40;;
74044;SDS011;62389;51.412;5.436;2024-03-17T12:49:55;6.70;;;3.28;;
74044;SDS011;62389;51.412;5.436;2024-03-17T12:52:22;8.15;;;3.10;;
74044;SDS011;62389;51.412;5.436;2024-03-17T12:57:44;8.48;;;3.63;;
74044;SDS011;62389;51.412;5.436;2024-03-17T13:00:29;7.22;;;3.00;;
74044;SDS011;62389;51.412;5.436;2024-03-17T13:03:01;6.35;;;3.50;;
74044;SDS011;62389;51.412;5.436;2024-03-17T13:05:34;6.63;;;3.30;;
74044;SDS011;62389;51.412;5.436;2024-03-17T13:08:01;6.65;;;3.13;;
74044;SDS011;62389;51.412;5.436;2024-03-17T13:10:27;5.82;;;3.00;;
74044;SDS011;62389;51.412;5.436;2024-03-17T13:13:00;7.72;;;3.95;;
74044;SDS011;62389;51.412;5.436;2024-03-17T13:15:27;7.72;;;3.30;;
74044;SDS011;62389;51.412;5.436;2024-03-17T13:17:54;6.50;;;3.25;;
74044;SDS011;62389;51.412;5.436;2024-03-17T13:20:19;12.32;;;3.42;;
74044;SDS011;62389;51.412;5.436;2024-03-17T13:22:45;6.03;;;3.10;;
74044;SDS011;62389;51.412;5.436;2024-03-17T13:25:17;5.32;;;2.70;;
74044;SDS011;62389;51.412;5.436;2024-03-17T13:27:46;7.05;;;2.90;;
74044;SDS011;62389;51.412;5.436;2024-03-17T13:30:13;5.70;;;2.42;;
74044;SDS011;62389;51.412;5.436;2024-03-17T13:32:39;9.77;;;2.40;;
74044;SDS011;62389;51.412;5.436;2024-03-17T13:35:10;5.20;;;2.92;;
74044;SDS011;62389;51.412;5.436;2024-03-17T13:37:40;7.28;;;3.10;;
74044;SDS011;62389;51.412;5.436;2024-03-17T13:40:05;5.20;;;2.53;;
74044;SDS011;62389;51.412;5.436;2024-03-17T13:42:31;4.13;;;2.65;;
74044;SDS011;62389;51.412;5.436;2024-03-17T13:44:57;5.50;;;2.83;;
74044;SDS011;62389;51.412;5.436;2024-03-17T13:47:22;6.30;;;3.10;;
74044;SDS011;62389;51.412;5.436;2024-03-17T13:49:48;5.30;;;2.80;;
74044;SDS011;62389;51.412;5.436;2024-03-17T13:52:13;4.25;;;2.35;;
74044;SDS011;62389;51.412;5.436;2024-03-17T13:54:38;6.03;;;2.78;;
74044;SDS011;62389;51.412;5.436;2024-03-17T13:57:04;7.50;;;2.72;;
74044;SDS011;62389;51.412;5.436;2024-03-17T13:59:29;6.50;;;2.40;;
74044;SDS011;62389;51.412;5.436;2024-03-17T14:01:55;5.32;;;2.40;;
74044;SDS011;62389;51.412;5.436;2024-03-17T14:04:21;3.95;;;2.30;;
74044;SDS011;62389;51.412;5.436;2024-03-17T14:06:46;5.63;;;3.00;;
74044;SDS011;62389;51.412;5.436;2024-03-17T14:09:14;4.35;;;2.53;;
74044;SDS011;62389;51.412;5.436;2024-03-17T14:11:42;4.28;;;2.92;;
74044;SDS011;62389;51.412;5.436;2024-03-17T14:14:08;4.72;;;2.35;;
74044;SDS011;62389;51.412;5.436;2024-03-17T14:16:35;5.43;;;2.45;;
74044;SDS011;62389;51.412;5.436;2024-03-17T14:19:01;6.80;;;2.92;;
74044;SDS011;62389;51.412;5.436;2024-03-17T14:21:27;10.80;;;2.65;;
74044;SDS011;62389;51.412;5.436;2024-03-17T14:23:53;4.60;;;2.45;;
74044;SDS011;62389;51.412;5.436;2024-03-17T14:26:19;5.75;;;2.25;;
74044;SDS011;62389;51.412;5.436;2024-03-17T14:28:44;4.57;;;2.40;;
74044;SDS011;62389;51.412;5.436;2024-03-17T14:31:11;5.05;;;2.45;;
74044;SDS011;62389;51.412;5.436;2024-03-17T14:33:36;3.65;;;2.17;;
74044;SDS011;62389;51.412;5.436;2024-03-17T14:36:02;5.22;;;2.30;;
74044;SDS011;62389;51.412;5.436;2024-03-17T14:38:27;4.72;;;2.10;;
74044;SDS011;62389;51.412;5.436;2024-03-17T14:40:53;7.68;;;2.47;;
74044;SDS011;62389;51.412;5.436;2024-03-17T14:43:18;5.80;;;2.88;;
74044;SDS011;62389;51.412;5.436;2024-03-17T14:45:44;5.57;;;2.08;;
74044;SDS011;62389;51.412;5.436;2024-03-17T14:48:10;5.88;;;2.20;;
74044;SDS011;62389;51.412;5.436;2024-03-17T14:50:36;3.60;;;1.98;;
74044;SDS011;62389;51.412;5.436;2024-03-17T14:53:02;3.70;;;1.80;;
74044;SDS011;62389;51.412;5.436;2024-03-17T14:55:27;3.83;;;1.70;;
74044;SDS011;62389;51.412;5.436;2024-03-17T14:57:53;3.22;;;1.80;;
74044;SDS011;62389;51.412;5.436;2024-03-17T15:00:19;3.40;;;1.75;;
74044;SDS011;62389;51.412;5.436;2024-03-17T15:02:45;4.88;;;2.05;;
74044;SDS011;62389;51.412;5.436;2024-03-17T15:05:12;3.80;;;2.25;;
74044;SDS011;62389;51.412;5.436;2024-03-17T15:07:40;4.00;;;2.03;;
74044;SDS011;62389;51.412;5.436;2024-03-17T15:10:06;3.85;;;1.48;;
74044;SDS011;62389;51.412;5.436;2024-03-17T15:12:32;3.83;;;1.73;;
74044;SDS011;62389;51.412;5.436;2024-03-17T15:14:58;4.57;;;2.08;;
74044;SDS011;62389;51.412;5.436;2024-03-17T15:17:23;4.05;;;2.00;;
74044;SDS011;62389;51.412;5.436;2024-03-17T15:19:48;4.35;;;1.85;;
74044;SDS011;62389;51.412;5.436;2024-03-17T15:22:14;4.93;;;2.00;;
74044;SDS011;62389;51.412;5.436;2024-03-17T15:24:39;4.95;;;2.30;;
74044;SDS011;62389;51.412;5.436;2024-03-17T15:27:05;5.43;;;1.83;;
74044;SDS011;62389;51.412;5.436;2024-03-17T15:29:30;4.53;;;1.90;;
74044;SDS011;62389;51.412;5.436;2024-03-17T15:31:56;5.53;;;2.03;;
74044;SDS011;62389;51.412;5.436;2024-03-17T15:34:24;4.72;;;1.75;;
74044;SDS011;62389;51.412;5.436;2024-03-17T15:36:50;15.93;;;2.30;;
74044;SDS011;62389;51.412;5.436;2024-03-17T15:39:15;6.07;;;2.10;;
74044;SDS011;62389;51.412;5.436;2024-03-17T15:41:41;3.38;;;1.60;;